EGPE/INV METAR and TAF weather

Enter ICAO airport designator
Station Type Date Time Source
EGPE METAR 2018/07/21 03:50 UTC NOAA

EGPE 210350Z 17003KT 9999 SCT009 BKN019 14/13 Q1013


Station Type Date Time Source
EGPE Decoded METAR 2018/07/21 03:50 UTC NOAA

Inverness / Dalcross, United Kingdom (EGPE) 57-32N 004-03W 0M
Jul 20, 2018 - 11:50 PM EDT / 2018.07.21 0350 UTC
Wind: from the S (170 degrees) at 3 MPH (3 KT):0
Visibility: greater than 7 mile(s):0
Sky conditions: mostly cloudy
Temperature: 57 F (14 C)
Dew Point: 55 F (13 C)
Relative Humidity: 93%
Pressure (altimeter): 29.91 in. Hg (1013 hPa)
ob: EGPE 210350Z 17003KT 9999 SCT009 BKN019 14/13 Q1013
cycle: 4

Station Type Date Time Source
EGPE TAF UTC NOAA

Error!


Example: see airport list